createdAt,value
2023-05-12T00:03:04.235Z,99.99
2023-05-12T00:06:11.888Z,99.99
2023-05-12T00:09:19.304Z,99.99
2023-05-12T00:12:28.608Z,99.99
2023-05-12T00:15:36.018Z,99.99
2023-05-12T00:18:43.740Z,99.99
2023-05-12T00:21:51.526Z,99.99
2023-05-12T00:24:59.950Z,99.99
2023-05-12T00:28:07.432Z,99.99
2023-05-12T00:31:15.320Z,99.99
2023-05-12T00:34:24.270Z,99.99
2023-05-12T00:37:32.032Z,99.99
2023-05-12T00:40:35.291Z,99.99
2023-05-12T00:43:43.518Z,99.99
2023-05-12T00:46:51.438Z,99.99
2023-05-12T00:49:58.656Z,99.99
2023-05-12T00:53:07.179Z,99.99
2023-05-12T00:56:15.004Z,99.99
2023-05-12T00:59:22.247Z,99.99
2023-05-12T01:02:29.527Z,99.99
2023-05-12T01:05:38.974Z,99.99
2023-05-12T01:08:46.512Z,99.99
2023-05-12T01:11:54.173Z,99.99
2023-05-12T01:15:03.383Z,99.99
2023-05-12T01:18:11.130Z,99.99
2023-05-12T01:21:18.335Z,99.99
2023-05-12T01:24:27.756Z,99.99
2023-05-12T01:27:35.894Z,99.99
2023-05-12T01:30:43.641Z,99.99
2023-05-12T01:33:52.354Z,99.99
2023-05-12T01:37:00.062Z,99.99
2023-05-12T01:40:08.461Z,99.99
2023-05-12T01:43:17.179Z,99.99
2023-05-12T01:46:24.987Z,99.99
2023-05-12T01:49:32.208Z,99.99
2023-05-12T01:52:39.753Z,99.99
2023-05-12T01:55:48.425Z,99.99
2023-05-12T01:58:55.638Z,99.99
2023-05-12T02:02:03.292Z,99.99
2023-05-12T02:05:12.064Z,99.99
2023-05-12T02:08:19.920Z,99.99
2023-05-12T02:11:27.136Z,99.99
2023-05-12T02:14:36.461Z,99.99
2023-05-12T02:17:44.335Z,99.99
2023-05-12T02:20:51.512Z,99.99
2023-05-12T02:24:00.723Z,99.99
2023-05-12T02:27:07.570Z,99.99
2023-05-12T02:30:14.903Z,99.99
2023-05-12T02:33:22.492Z,99.99
2023-05-12T02:36:31.159Z,99.99
2023-05-12T02:39:38.583Z,99.99
2023-05-12T02:42:46.699Z,99.99
2023-05-12T02:45:56.291Z,99.99
2023-05-12T02:49:03.929Z,99.99
2023-05-12T02:52:12.043Z,99.99
2023-05-12T02:55:20.354Z,99.99
2023-05-12T02:58:27.978Z,99.99
2023-05-12T03:01:35.435Z,99.99
2023-05-12T03:04:45.047Z,99.99
2023-05-12T03:07:52.408Z,99.99
2023-05-12T03:10:59.700Z,99.99
2023-05-12T03:14:07.306Z,99.99
2023-05-12T03:17:15.983Z,99.99
2023-05-12T03:20:23.468Z,99.99
2023-05-12T03:23:31.154Z,99.99
2023-05-12T03:26:40.376Z,99.99
2023-05-12T03:29:47.645Z,99.99
2023-05-12T03:32:55.071Z,99.99
2023-05-12T03:36:04.000Z,99.99
2023-05-12T03:39:10.979Z,99.99
2023-05-12T03:42:18.424Z,99.99
2023-05-12T03:45:27.786Z,99.99
2023-05-12T03:48:35.766Z,99.99
2023-05-12T03:51:42.712Z,99.99
2023-05-12T03:54:50.383Z,99.99
2023-05-12T03:57:59.250Z,99.99
2023-05-12T04:01:07.529Z,99.99
2023-05-12T04:04:15.429Z,99.99
2023-05-12T04:07:24.578Z,99.99
2023-05-12T04:10:31.657Z,99.99
2023-05-12T04:13:39.447Z,99.99
2023-05-12T04:16:48.152Z,99.99
2023-05-12T04:19:56.053Z,99.99
2023-05-12T04:23:03.533Z,99.99
2023-05-12T04:26:12.266Z,99.99
2023-05-12T04:29:20.009Z,99.99
2023-05-12T04:32:27.759Z,99.99
2023-05-12T04:35:37.518Z,99.99
2023-05-12T04:38:45.404Z,99.99
2023-05-12T04:41:52.864Z,99.99
2023-05-12T04:45:00.464Z,99.99
2023-05-12T04:48:08.572Z,99.99
2023-05-12T04:51:16.611Z,99.99
2023-05-12T04:54:23.843Z,99.99
2023-05-12T04:57:33.057Z,99.99
2023-05-12T05:00:40.846Z,99.99
2023-05-12T05:03:48.622Z,99.99
2023-05-12T05:06:58.040Z,99.99
2023-05-12T05:10:05.011Z,99.99
2023-05-12T05:13:12.323Z,99.99
2023-05-12T05:16:21.099Z,99.99
2023-05-12T05:19:46.131Z,99.99
2023-05-12T05:22:33.641Z,99.99
2023-05-12T05:25:41.799Z,99.99
2023-05-12T05:28:50.729Z,99.99
2023-05-12T05:31:58.518Z,99.99
2023-05-12T05:35:09.699Z,99.99
2023-05-12T05:38:18.693Z,99.99
2023-05-12T05:41:26.355Z,99.99
2023-05-12T05:44:34.790Z,99.99
2023-05-12T05:47:43.583Z,99.99
2023-05-12T05:50:50.821Z,99.99
2023-05-12T05:53:58.006Z,99.99
2023-05-12T05:57:07.481Z,99.57
2023-05-12T06:00:14.391Z,97.44
2023-05-12T06:03:22.026Z,97.49
2023-05-12T06:06:29.777Z,97.49
2023-05-12T06:09:38.147Z,96.94
2023-05-12T06:12:46.166Z,95.01
2023-05-12T06:15:54.052Z,94.20
2023-05-12T06:19:02.499Z,93.99
2023-05-12T06:22:10.477Z,93.54
2023-05-12T06:25:17.756Z,93.54
2023-05-12T06:28:27.121Z,93.24
2023-05-12T06:31:34.432Z,93.09
2023-05-12T06:34:41.675Z,92.07
2023-05-12T06:37:50.649Z,90.96
2023-05-12T06:40:57.873Z,92.33
2023-05-12T06:44:06.400Z,90.51
2023-05-12T06:47:14.579Z,89.70
2023-05-12T06:50:23.150Z,87.46
2023-05-12T06:53:30.302Z,88.64
2023-05-12T06:56:38.373Z,88.20
2023-05-12T06:59:47.090Z,86.47
2023-05-12T07:02:55.878Z,86.22
2023-05-12T07:06:03.894Z,87.65
2023-05-12T07:09:13.425Z,84.06
2023-05-12T07:12:21.047Z,84.77
2023-05-12T07:15:28.500Z,83.41
2023-05-12T07:18:39.082Z,83.51
2023-05-12T07:21:46.959Z,83.37
2023-05-12T07:24:54.362Z,83.13
2023-05-12T07:28:03.434Z,80.66
2023-05-12T07:31:11.046Z,80.22
2023-05-12T07:34:18.328Z,77.76
2023-05-12T07:37:25.829Z,78.97
2023-05-12T07:40:35.108Z,75.78
2023-05-12T07:43:42.574Z,77.90
2023-05-12T07:46:51.018Z,76.75
2023-05-12T07:49:59.398Z,78.77
2023-05-12T07:53:07.182Z,79.30
2023-05-12T07:56:14.519Z,74.52
2023-05-12T07:59:23.944Z,74.56
2023-05-12T08:02:31.379Z,74.56
2023-05-12T08:05:39.530Z,76.18
2023-05-12T08:08:48.650Z,74.76
2023-05-12T08:11:56.686Z,74.76
2023-05-12T08:15:04.260Z,76.84
2023-05-12T08:18:11.980Z,78.63
2023-05-12T08:21:20.487Z,74.90
2023-05-12T08:24:28.075Z,74.29
2023-05-12T08:27:36.240Z,74.49
2023-05-12T08:30:45.109Z,73.95
2023-05-12T08:34:09.172Z,73.52
2023-05-12T08:36:58.153Z,70.12
2023-05-12T08:40:07.462Z,72.81
2023-05-12T08:43:15.395Z,70.26
2023-05-12T08:46:23.668Z,70.26
2023-05-12T08:49:32.435Z,71.77
2023-05-12T08:52:40.205Z,73.04
2023-05-12T08:56:01.179Z,71.20
2023-05-12T08:58:53.229Z,72.71
2023-05-12T09:02:01.976Z,69.65
2023-05-12T09:05:09.540Z,68.02
2023-05-12T09:08:17.544Z,72.53
2023-05-12T09:11:26.358Z,69.79
2023-05-12T09:14:34.100Z,71.36
2023-05-12T09:17:41.462Z,67.75
2023-05-12T09:20:51.075Z,63.64
2023-05-12T09:23:59.073Z,66.31
2023-05-12T09:27:06.453Z,65.38
2023-05-12T09:30:15.705Z,62.87
2023-05-12T09:33:23.943Z,66.65
2023-05-12T09:36:31.100Z,63.61
2023-05-12T09:39:39.005Z,60.33
2023-05-12T09:42:48.245Z,61.04
2023-05-12T09:45:55.826Z,59.64
2023-05-12T09:49:03.246Z,60.01
2023-05-12T09:52:12.106Z,57.20
2023-05-12T09:55:20.629Z,60.18
2023-05-12T09:58:28.598Z,53.87
2023-05-12T10:01:37.965Z,53.67
2023-05-12T10:04:45.267Z,54.47
2023-05-12T10:07:53.524Z,59.45
2023-05-12T10:11:02.354Z,56.07
2023-05-12T10:14:10.063Z,56.65
2023-05-12T10:17:18.277Z,55.65
2023-05-12T10:20:26.682Z,58.22
2023-05-12T10:23:37.159Z,54.90
2023-05-12T10:26:34.715Z,52.80
2023-05-12T10:29:42.274Z,54.69
2023-05-12T10:32:51.100Z,58.39
2023-05-12T10:35:59.066Z,56.14
2023-05-12T10:39:06.603Z,54.61
2023-05-12T10:42:15.574Z,51.67
2023-05-12T10:45:23.310Z,50.74
2023-05-12T10:48:30.979Z,50.77
2023-05-12T10:51:40.059Z,51.70
2023-05-12T10:54:47.835Z,50.85
2023-05-12T10:57:56.630Z,48.35
2023-05-12T11:01:06.140Z,52.00
2023-05-12T11:04:13.962Z,55.11
2023-05-12T11:07:22.363Z,54.32
2023-05-12T11:10:31.259Z,44.43
2023-05-12T11:13:40.639Z,45.55
2023-05-12T11:16:48.109Z,46.43
2023-05-12T11:19:55.351Z,44.41
2023-05-12T11:23:05.083Z,46.78
2023-05-12T11:26:12.178Z,44.35
2023-05-12T11:29:19.589Z,44.65
2023-05-12T11:32:29.227Z,42.99
2023-05-12T11:35:37.206Z,46.38
2023-05-12T11:38:44.205Z,42.71
2023-05-12T11:41:59.499Z,42.18
2023-05-12T11:44:58.033Z,43.99
2023-05-12T11:48:06.017Z,42.02
2023-05-12T11:51:13.350Z,42.65
2023-05-12T11:54:22.949Z,43.07
2023-05-12T11:57:30.132Z,42.02
2023-05-12T12:00:37.913Z,44.24
2023-05-12T12:03:47.408Z,44.74
2023-05-12T12:06:55.849Z,44.92
2023-05-12T12:10:03.886Z,43.25
2023-05-12T12:13:12.998Z,39.02
2023-05-12T12:16:21.097Z,37.88
2023-05-12T12:19:28.926Z,41.06
2023-05-12T12:22:37.874Z,39.74
2023-05-12T12:25:45.938Z,39.36
2023-05-12T12:28:53.415Z,41.06
2023-05-12T12:32:02.104Z,38.56
2023-05-12T12:35:09.492Z,36.80
2023-05-12T12:38:18.228Z,39.94
2023-05-12T12:41:25.729Z,39.82
2023-05-12T12:44:34.812Z,40.81
2023-05-12T12:47:42.950Z,40.26
2023-05-12T12:50:50.372Z,37.47
2023-05-12T12:53:59.178Z,38.29
2023-05-12T12:57:07.480Z,38.92
2023-05-12T13:00:14.970Z,38.66
2023-05-12T13:03:23.438Z,41.97
2023-05-12T13:06:32.130Z,39.86
2023-05-12T13:09:40.072Z,38.14
2023-05-12T13:12:49.061Z,41.19
2023-05-12T13:15:57.321Z,37.59
2023-05-12T13:19:04.680Z,39.46
2023-05-12T13:22:12.572Z,40.16
2023-05-12T13:25:21.068Z,40.16
2023-05-12T13:28:29.078Z,41.96
2023-05-12T13:31:37.550Z,40.50
2023-05-12T13:34:46.047Z,41.02
2023-05-12T13:37:53.648Z,40.34
2023-05-12T13:41:02.424Z,42.24
2023-05-12T13:44:10.893Z,41.58
2023-05-12T13:47:18.715Z,39.06
2023-05-12T13:50:26.789Z,41.02
2023-05-12T13:53:35.899Z,37.83
2023-05-12T13:56:43.619Z,38.98
2023-05-12T13:59:51.720Z,38.70
2023-05-12T14:02:59.055Z,39.32
2023-05-12T14:06:08.111Z,40.42
2023-05-12T14:09:16.002Z,39.36
2023-05-12T14:12:23.586Z,40.99
2023-05-12T14:15:44.354Z,40.08
2023-05-12T14:18:38.206Z,41.14
2023-05-12T14:21:45.152Z,39.88
2023-05-12T14:24:54.392Z,39.62
2023-05-12T14:28:02.544Z,37.55
2023-05-12T14:29:17.748Z,37.47
2023-05-12T14:32:26.377Z,38.09
2023-05-12T14:35:35.232Z,38.82
2023-05-12T14:38:42.569Z,40.16
2023-05-12T14:41:50.293Z,40.06
2023-05-12T14:44:58.737Z,39.87
2023-05-12T14:48:06.997Z,39.07
2023-05-12T14:51:15.065Z,38.76
2023-05-12T14:54:25.896Z,40.66
2023-05-12T14:57:33.955Z,38.46
2023-05-12T15:00:41.106Z,38.52
2023-05-12T15:03:51.208Z,38.59
2023-05-12T15:06:59.778Z,37.47
2023-05-12T15:10:07.495Z,37.57
2023-05-12T15:13:15.534Z,37.57
2023-05-12T15:16:25.480Z,36.29
2023-05-12T15:19:32.828Z,37.81
2023-05-12T15:22:40.916Z,38.52
2023-05-12T15:25:50.328Z,39.84
2023-05-12T15:28:58.696Z,37.82
2023-05-12T15:32:06.331Z,37.88
2023-05-12T15:35:15.682Z,38.78
2023-05-12T15:38:23.034Z,36.47
2023-05-12T15:41:30.702Z,36.46
2023-05-12T15:44:40.029Z,35.75
2023-05-12T15:47:47.308Z,37.65
2023-05-12T15:50:55.211Z,35.54
2023-05-12T15:54:02.769Z,36.44
2023-05-12T15:57:11.740Z,37.47
2023-05-12T16:00:19.902Z,37.62
2023-05-12T16:03:27.158Z,37.64
2023-05-12T16:06:35.918Z,37.36
2023-05-12T16:09:43.245Z,38.96
2023-05-12T16:12:52.063Z,38.26
2023-05-12T16:16:01.454Z,39.04
2023-05-12T16:19:09.178Z,38.22
2023-05-12T16:22:19.577Z,36.52
2023-05-12T16:25:28.625Z,38.52
2023-05-12T16:28:36.498Z,38.90
2023-05-12T16:31:44.176Z,37.40
2023-05-12T16:34:51.397Z,38.50
2023-05-12T16:38:00.533Z,38.59
2023-05-12T16:41:08.211Z,36.79
2023-05-12T16:44:15.522Z,37.49
2023-05-12T16:47:25.536Z,38.00
2023-05-12T16:50:33.403Z,38.90
2023-05-12T16:53:40.905Z,39.50
2023-05-12T16:56:49.455Z,40.12
2023-05-12T16:59:57.572Z,38.04
2023-05-12T17:03:05.867Z,38.85
2023-05-12T17:06:05.376Z,39.65
2023-05-12T17:09:13.198Z,40.08
2023-05-12T17:12:21.662Z,40.99
2023-05-12T17:15:29.652Z,41.49
2023-05-12T17:21:48.664Z,44.21
2023-05-12T17:24:58.682Z,43.04
2023-05-12T17:28:07.485Z,43.04
2023-05-12T17:31:16.599Z,42.66
2023-05-12T17:34:24.560Z,44.66
2023-05-12T17:37:33.546Z,42.97
2023-05-12T17:40:41.384Z,43.50
2023-05-12T17:43:48.867Z,44.50
2023-05-12T17:46:57.840Z,45.30
2023-05-12T17:50:05.722Z,45.83
2023-05-12T17:53:13.294Z,45.14
2023-05-12T17:56:21.490Z,45.45
2023-05-12T17:59:30.994Z,51.49
2023-05-12T18:02:39.078Z,48.90
2023-05-12T18:05:46.699Z,47.80
2023-05-12T18:08:55.876Z,52.34
2023-05-12T18:12:03.145Z,53.65
2023-05-12T18:15:10.537Z,55.68
2023-05-12T18:18:19.580Z,56.21
2023-05-12T18:21:26.505Z,56.64
2023-05-12T18:24:34.052Z,55.94
2023-05-12T18:27:43.007Z,57.88
2023-05-12T18:30:50.417Z,60.12
2023-05-12T18:33:58.133Z,61.73
2023-05-12T18:37:06.801Z,61.46
2023-05-12T18:40:13.766Z,64.51
2023-05-12T18:43:21.330Z,64.14
2023-05-12T18:46:29.268Z,64.07
2023-05-12T18:49:38.020Z,64.50
2023-05-12T18:52:45.348Z,66.45
2023-05-12T18:55:52.842Z,65.67
2023-05-12T18:59:01.510Z,67.69
2023-05-12T19:02:08.700Z,67.93
2023-05-12T19:05:16.573Z,68.37
2023-05-12T19:08:25.003Z,69.41
2023-05-12T19:11:32.891Z,71.13
2023-05-12T19:14:40.425Z,72.17
2023-05-12T19:17:49.055Z,73.83
2023-05-12T19:20:57.029Z,73.22
2023-05-12T19:24:04.368Z,73.97
2023-05-12T19:27:11.738Z,73.60
2023-05-12T19:30:21.213Z,72.68
2023-05-12T19:33:28.660Z,74.44
2023-05-12T19:36:36.131Z,75.05
2023-05-12T19:39:45.081Z,73.83
2023-05-12T19:42:52.502Z,74.07
2023-05-12T19:46:00.513Z,75.79
2023-05-12T19:49:09.459Z,76.44
2023-05-12T19:52:16.867Z,77.45
2023-05-12T19:55:24.824Z,76.03
2023-05-12T19:58:33.361Z,75.46
2023-05-12T20:01:41.484Z,75.05
2023-05-12T20:04:49.000Z,74.44
2023-05-12T20:07:56.101Z,73.63
2023-05-12T20:11:05.052Z,74.07
2023-05-12T20:14:12.463Z,73.77
2023-05-12T20:17:20.054Z,73.57
2023-05-12T20:20:29.208Z,74.07
2023-05-12T20:23:36.693Z,74.52
2023-05-12T20:26:44.047Z,76.14
2023-05-12T20:29:52.530Z,76.95
2023-05-12T20:33:00.748Z,76.89
2023-05-12T20:36:08.318Z,77.20
2023-05-12T20:39:16.571Z,77.29
2023-05-12T20:42:24.352Z,77.09
2023-05-12T20:45:32.163Z,78.52
2023-05-12T20:48:39.074Z,78.66
2023-05-12T20:51:48.271Z,77.29
2023-05-12T20:54:55.532Z,77.23
2023-05-12T20:58:03.600Z,78.35
2023-05-12T21:01:12.907Z,78.25
2023-05-12T21:04:20.345Z,78.05
2023-05-12T21:07:27.693Z,78.05
2023-05-12T21:10:36.707Z,78.80
2023-05-12T21:13:44.278Z,77.87
2023-05-12T21:16:51.316Z,77.87
2023-05-12T21:20:00.193Z,77.47
2023-05-12T21:23:07.864Z,78.08
2023-05-12T21:26:15.287Z,77.98
2023-05-12T21:29:24.124Z,77.98
2023-05-12T21:32:31.974Z,76.92
2023-05-12T21:35:39.239Z,73.77
2023-05-12T21:38:46.096Z,73.36
2023-05-12T21:41:55.325Z,74.79
2023-05-12T21:45:02.649Z,74.38
2023-05-12T21:48:12.585Z,75.91
2023-05-12T21:51:21.288Z,76.31
2023-05-12T21:54:28.185Z,75.74
2023-05-12T21:57:35.730Z,77.37
2023-05-12T22:00:44.796Z,77.40
2023-05-12T22:03:51.925Z,73.43
2023-05-12T22:06:59.567Z,76.04
2023-05-12T22:10:08.457Z,74.01
2023-05-12T22:13:15.625Z,71.16
2023-05-12T22:16:31.114Z,73.91
2023-05-12T22:19:27.004Z,74.72
2023-05-12T22:22:36.042Z,74.93
2023-05-12T22:25:43.463Z,75.78
2023-05-12T22:28:50.706Z,75.88
2023-05-12T22:31:59.711Z,76.32
2023-05-12T22:35:06.663Z,77.75
2023-05-12T22:38:13.948Z,78.91
2023-05-12T22:41:22.825Z,77.17
2023-05-12T22:44:30.140Z,78.60
2023-05-12T22:47:37.460Z,77.58
2023-05-12T22:50:46.720Z,77.92
2023-05-12T22:53:53.576Z,76.80
2023-05-12T22:57:01.496Z,78.02
2023-05-12T23:00:09.121Z,78.77
2023-05-12T23:03:17.402Z,79.49
2023-05-12T23:06:25.074Z,80.71
2023-05-12T23:09:32.304Z,80.30
2023-05-12T23:12:40.597Z,80.34
2023-05-12T23:15:48.201Z,79.52
2023-05-12T23:18:55.915Z,79.52
2023-05-12T23:22:04.379Z,79.93
2023-05-12T23:25:11.860Z,79.59
2023-05-12T23:28:19.005Z,78.77
2023-05-12T23:31:27.969Z,78.16
2023-05-12T23:34:35.705Z,77.92
2023-05-12T23:37:43.061Z,78.12
2023-05-12T23:40:50.541Z,78.27
2023-05-12T23:43:59.702Z,78.67
2023-05-12T23:47:06.898Z,78.57
2023-05-12T23:50:14.253Z,77.79
2023-05-12T23:53:22.931Z,78.41
2023-05-12T23:56:30.156Z,78.09
2023-05-12T23:59:37.496Z,77.48
